createdAt,value
2019-05-14T00:00:26.171Z,1031.33
2019-05-14T00:01:26.161Z,1031.33
2019-05-14T00:02:28.835Z,1031.33
2019-05-14T00:03:26.169Z,1031.29
2019-05-14T00:04:26.185Z,1031.26
2019-05-14T00:05:26.195Z,1031.27
2019-05-14T00:06:26.207Z,1031.29
2019-05-14T00:07:27.611Z,1031.27
2019-05-14T00:08:26.564Z,1031.29
2019-05-14T00:09:26.245Z,1031.29
2019-05-14T00:11:26.463Z,1031.35
2019-05-14T00:12:26.281Z,1031.31
2019-05-14T00:13:26.311Z,1031.30
2019-05-14T00:14:38.759Z,1031.30
2019-05-14T00:15:26.323Z,1031.28
2019-05-14T00:16:26.334Z,1031.32
2019-05-14T00:17:26.365Z,1031.35
2019-05-14T00:18:26.667Z,1031.33
2019-05-14T00:19:26.653Z,1031.31
2019-05-14T00:20:26.433Z,1031.34
2019-05-14T00:21:26.409Z,1031.30
2019-05-14T00:22:26.437Z,1031.29
2019-05-14T00:23:26.440Z,1031.34
2019-05-14T00:24:26.554Z,1031.31
2019-05-14T00:25:26.460Z,1031.31
2019-05-14T00:26:26.480Z,1031.33
2019-05-14T00:27:26.491Z,1031.33
2019-05-14T00:28:26.514Z,1031.32
2019-05-14T00:29:26.527Z,1031.28
2019-05-14T00:30:26.549Z,1031.34
2019-05-14T00:31:26.642Z,1031.28
2019-05-14T00:32:26.658Z,1031.29
2019-05-14T00:33:26.575Z,1031.25
2019-05-14T00:34:26.593Z,1031.25
2019-05-14T00:35:26.600Z,1031.22
2019-05-14T00:36:26.610Z,1031.22
2019-05-14T00:37:26.739Z,1031.18
2019-05-14T00:38:26.651Z,1031.18
2019-05-14T00:39:26.654Z,1031.22
2019-05-14T00:40:26.681Z,1031.24
2019-05-14T00:41:26.685Z,1031.24
2019-05-14T00:42:26.709Z,1031.26
2019-05-14T00:43:26.707Z,1031.26
2019-05-14T00:44:26.788Z,1031.27
2019-05-14T00:45:26.902Z,1031.24
2019-05-14T00:46:26.805Z,1031.23
2019-05-14T00:47:26.763Z,1031.21
2019-05-14T00:48:26.779Z,1031.23
2019-05-14T00:49:26.790Z,1031.23
2019-05-14T00:50:26.915Z,1031.23
2019-05-14T00:51:26.823Z,1031.26
2019-05-14T00:52:26.952Z,1031.22
2019-05-14T00:53:26.882Z,1031.26
2019-05-14T00:54:26.873Z,1031.25
2019-05-14T00:55:27.031Z,1031.22
2019-05-14T00:56:26.888Z,1031.23
2019-05-14T00:57:26.905Z,1031.23
2019-05-14T00:58:27.052Z,1031.21
2019-05-14T00:59:27.065Z,1031.23
2019-05-14T01:00:26.944Z,1031.24
2019-05-14T01:01:26.960Z,1031.21
2019-05-14T01:02:26.998Z,1031.19
2019-05-14T01:03:26.988Z,1031.18
2019-05-14T01:04:27.122Z,1031.17
2019-05-14T01:05:27.023Z,1031.15
2019-05-14T01:06:27.027Z,1031.13
2019-05-14T01:07:27.047Z,1031.12
2019-05-14T01:08:27.058Z,1031.17
2019-05-14T01:09:27.092Z,1031.14
2019-05-14T01:10:27.088Z,1031.11
2019-05-14T01:11:27.094Z,1031.08
2019-05-14T01:12:27.191Z,1031.09
2019-05-14T01:13:27.125Z,1031.08
2019-05-14T01:14:27.145Z,1031.11
2019-05-14T01:15:27.157Z,1031.10
2019-05-14T01:16:27.168Z,1031.14
2019-05-14T01:17:27.192Z,1031.10
2019-05-14T01:18:27.193Z,1031.14
2019-05-14T01:19:27.214Z,1031.14
2019-05-14T01:20:27.233Z,1031.16
2019-05-14T01:21:27.475Z,1031.14
2019-05-14T01:22:27.283Z,1031.12
2019-05-14T01:23:27.265Z,1031.06
2019-05-14T01:24:27.275Z,1031.06
2019-05-14T01:25:27.297Z,1031.07
2019-05-14T01:26:27.308Z,1031.06
2019-05-14T01:27:27.368Z,1031.10
2019-05-14T01:28:27.352Z,1031.07
2019-05-14T01:29:27.373Z,1031.07
2019-05-14T01:30:27.369Z,1031.02
2019-05-14T01:31:27.419Z,1031.01
2019-05-14T01:32:27.487Z,1031.02
2019-05-14T01:33:27.418Z,1031.00
2019-05-14T01:34:27.413Z,1031.03
2019-05-14T01:35:27.429Z,1031.02
2019-05-14T01:36:27.444Z,1030.97
2019-05-14T01:37:27.455Z,1030.91
2019-05-14T01:38:27.494Z,1030.93
2019-05-14T01:39:27.515Z,1030.86
2019-05-14T01:40:27.498Z,1030.87
2019-05-14T01:41:27.530Z,1030.83
2019-05-14T01:42:27.620Z,1030.82
2019-05-14T01:43:27.535Z,1030.74
2019-05-14T01:44:27.549Z,1030.76
2019-05-14T01:45:28.461Z,1030.70
2019-05-14T01:46:27.575Z,1030.73
2019-05-14T01:47:27.597Z,1030.67
2019-05-14T01:48:27.601Z,1030.66
2019-05-14T01:49:27.616Z,1030.64
2019-05-14T01:50:27.631Z,1030.59
2019-05-14T01:51:27.657Z,1030.57
2019-05-14T01:52:27.662Z,1030.56
2019-05-14T01:53:27.679Z,1030.58
2019-05-14T01:54:27.708Z,1030.59
2019-05-14T01:55:27.816Z,1030.59
2019-05-14T01:56:27.785Z,1030.61
2019-05-14T01:57:27.757Z,1030.56
2019-05-14T01:58:27.746Z,1030.52
2019-05-14T01:59:27.758Z,1030.57
2019-05-14T02:00:27.770Z,1030.63
2019-05-14T02:01:27.783Z,1030.61
2019-05-14T02:02:27.802Z,1030.62
2019-05-14T02:03:27.805Z,1030.61
2019-05-14T02:04:27.819Z,1030.62
2019-05-14T02:05:27.842Z,1030.63
2019-05-14T02:06:27.851Z,1030.63
2019-05-14T02:07:27.866Z,1030.58
2019-05-14T02:08:27.902Z,1030.57
2019-05-14T02:09:27.889Z,1030.53
2019-05-14T02:10:27.911Z,1030.51
2019-05-14T02:11:27.917Z,1030.51
2019-05-14T02:12:27.932Z,1030.53
2019-05-14T02:13:27.955Z,1030.58
2019-05-14T02:14:27.957Z,1030.56
2019-05-14T02:15:37.210Z,1030.59
2019-05-14T02:16:27.985Z,1030.54
2019-05-14T02:17:27.996Z,1030.56
2019-05-14T02:18:28.019Z,1030.52
2019-05-14T02:19:28.033Z,1030.55
2019-05-14T02:20:28.045Z,1030.55
2019-05-14T02:21:28.050Z,1030.53
2019-05-14T02:22:28.063Z,1030.51
2019-05-14T02:23:28.111Z,1030.53
2019-05-14T02:24:28.147Z,1030.47
2019-05-14T02:25:28.145Z,1030.48
2019-05-14T02:26:28.117Z,1030.44
2019-05-14T02:27:28.135Z,1030.48
2019-05-14T02:28:28.148Z,1030.48
2019-05-14T02:29:28.201Z,1030.49
2019-05-14T02:30:41.400Z,1030.47
2019-05-14T02:31:29.241Z,1030.48
2019-05-14T02:32:29.830Z,1030.45
2019-05-14T02:33:30.658Z,1030.50
2019-05-14T02:34:29.957Z,1030.50
2019-05-14T02:35:29.855Z,1030.48
2019-05-14T02:36:30.898Z,1030.45
2019-05-14T02:37:30.142Z,1030.52
2019-05-14T02:38:29.964Z,1030.51
2019-05-14T02:39:29.171Z,1030.52
2019-05-14T02:40:29.442Z,1030.53
2019-05-14T02:41:29.967Z,1030.59
2019-05-14T02:42:29.128Z,1030.54
2019-05-14T02:43:29.285Z,1030.54
2019-05-14T02:44:29.749Z,1030.52
2019-05-14T02:45:30.374Z,1030.56
2019-05-14T02:46:29.548Z,1030.60
2019-05-14T02:47:29.900Z,1030.65
2019-05-14T02:48:29.257Z,1030.62
2019-05-14T02:49:30.094Z,1030.61
2019-05-14T02:50:29.564Z,1030.61
2019-05-14T02:51:30.049Z,1030.63
2019-05-14T02:52:29.124Z,1030.61
2019-05-14T02:53:29.740Z,1030.56
2019-05-14T02:54:29.691Z,1030.55
2019-05-14T02:55:29.990Z,1030.55
2019-05-14T02:56:29.573Z,1030.59
2019-05-14T02:57:30.370Z,1030.55
2019-05-14T02:58:29.811Z,1030.61
2019-05-14T02:59:30.469Z,1030.58
2019-05-14T03:00:30.158Z,1030.56
2019-05-14T03:01:30.207Z,1030.57
2019-05-14T03:02:29.664Z,1030.57
2019-05-14T03:03:29.901Z,1030.60
2019-05-14T03:04:29.969Z,1030.56
2019-05-14T03:05:29.479Z,1030.57
2019-05-14T03:06:29.283Z,1030.54
2019-05-14T03:07:29.853Z,1030.56
2019-05-14T03:08:30.354Z,1030.54
2019-05-14T03:09:29.569Z,1030.50
2019-05-14T03:10:30.212Z,1030.50
2019-05-14T03:11:29.633Z,1030.49
2019-05-14T03:12:30.286Z,1030.45
2019-05-14T03:13:29.597Z,1030.47
2019-05-14T03:14:30.124Z,1030.45
2019-05-14T03:15:29.351Z,1030.44
2019-05-14T03:16:32.512Z,1030.42
2019-05-14T03:17:29.957Z,1030.42
2019-05-14T03:18:29.705Z,1030.44
2019-05-14T03:19:29.793Z,1030.43
2019-05-14T03:20:29.263Z,1030.42
2019-05-14T03:21:30.390Z,1030.40
2019-05-14T03:22:42.814Z,1030.38
2019-05-14T03:23:30.198Z,1030.41
2019-05-14T03:24:28.999Z,1030.42
2019-05-14T03:25:30.032Z,1030.42
2019-05-14T03:26:29.697Z,1030.40
2019-05-14T03:27:30.344Z,1030.42
2019-05-14T03:28:30.321Z,1030.41
2019-05-14T03:29:30.702Z,1030.44
2019-05-14T03:30:32.432Z,1030.40
2019-05-14T03:31:33.300Z,1030.45
2019-05-14T03:32:32.957Z,1030.42
2019-05-14T03:33:33.384Z,1030.43
2019-05-14T03:34:32.875Z,1030.37
2019-05-14T03:35:40.104Z,1030.38
2019-05-14T03:36:34.922Z,1030.39
2019-05-14T03:37:30.926Z,1030.38
2019-05-14T03:38:29.767Z,1030.34
2019-05-14T03:39:29.700Z,1030.37
2019-05-14T03:40:29.456Z,1030.36
2019-05-14T03:41:30.574Z,1030.35
2019-05-14T03:42:29.515Z,1030.34
2019-05-14T03:43:29.717Z,1030.36
2019-05-14T03:44:29.349Z,1030.33
2019-05-14T03:45:30.103Z,1030.30
2019-05-14T03:46:44.706Z,1030.28
2019-05-14T03:47:29.842Z,1030.27
2019-05-14T03:48:29.776Z,1030.26
2019-05-14T03:49:29.223Z,1030.25
2019-05-14T03:50:29.896Z,1030.30
2019-05-14T03:51:29.947Z,1030.31
2019-05-14T03:52:29.612Z,1030.31
2019-05-14T03:53:29.770Z,1030.33
2019-05-14T03:54:30.002Z,1030.35
2019-05-14T03:55:29.472Z,1030.32
2019-05-14T03:56:29.823Z,1030.36
2019-05-14T03:57:29.434Z,1030.37
2019-05-14T03:58:30.362Z,1030.39
2019-05-14T03:59:29.526Z,1030.35
2019-05-14T04:00:29.454Z,1030.36
2019-05-14T04:01:29.913Z,1030.38
2019-05-14T04:02:29.836Z,1030.30
2019-05-14T04:03:29.714Z,1030.33
2019-05-14T04:04:30.048Z,1030.32
2019-05-14T04:05:29.588Z,1030.28
2019-05-14T04:06:30.224Z,1030.29
2019-05-14T04:07:30.418Z,1030.25
2019-05-14T04:08:29.689Z,1030.24
2019-05-14T04:09:29.529Z,1030.25
2019-05-14T04:10:30.135Z,1030.21
2019-05-14T04:11:29.656Z,1030.23
2019-05-14T04:12:29.632Z,1030.19
2019-05-14T04:13:30.427Z,1030.20
2019-05-14T04:14:29.594Z,1030.17
2019-05-14T04:15:29.962Z,1030.15
2019-05-14T04:16:29.586Z,1030.12
2019-05-14T04:17:37.051Z,1030.11
2019-05-14T04:18:29.660Z,1030.12
2019-05-14T04:19:29.810Z,1030.13
2019-05-14T04:20:29.895Z,1030.11
2019-05-14T04:21:30.124Z,1030.14
2019-05-14T04:22:30.011Z,1030.13
2019-05-14T04:23:29.666Z,1030.12
2019-05-14T04:24:29.802Z,1030.15
2019-05-14T04:25:29.761Z,1030.13
2019-05-14T04:26:30.325Z,1030.13
2019-05-14T04:27:30.128Z,1030.15
2019-05-14T04:28:30.020Z,1030.12
2019-05-14T04:29:30.808Z,1030.15
2019-05-14T04:30:29.874Z,1030.13
2019-05-14T04:31:29.967Z,1030.12
2019-05-14T04:33:30.792Z,1030.12
2019-05-14T04:34:31.128Z,1030.12
2019-05-14T04:35:30.069Z,1030.13
2019-05-14T04:36:30.385Z,1030.09
2019-05-14T04:37:30.064Z,1030.10
2019-05-14T04:38:30.319Z,1030.13
2019-05-14T04:39:30.959Z,1030.11
2019-05-14T04:40:29.932Z,1030.09
2019-05-14T04:41:30.249Z,1030.11
2019-05-14T04:42:29.973Z,1030.12
2019-05-14T04:43:30.091Z,1030.08
2019-05-14T04:44:30.147Z,1030.11
2019-05-14T04:45:29.988Z,1030.08
2019-05-14T04:47:36.083Z,1030.12
2019-05-14T04:48:37.098Z,1030.09
2019-05-14T04:49:30.009Z,1030.12
2019-05-14T04:50:30.165Z,1030.11
2019-05-14T04:51:30.549Z,1030.16
2019-05-14T04:52:30.054Z,1030.12
2019-05-14T04:53:31.100Z,1030.15
2019-05-14T04:54:30.558Z,1030.11
2019-05-14T04:55:30.110Z,1030.16
2019-05-14T04:56:30.560Z,1030.13
2019-05-14T04:57:30.314Z,1030.12
2019-05-14T04:58:30.266Z,1030.11
2019-05-14T04:59:30.272Z,1030.12
2019-05-14T05:00:30.848Z,1030.11
2019-05-14T05:01:30.182Z,1030.14
2019-05-14T05:02:30.515Z,1030.13
2019-05-14T05:03:31.272Z,1030.15
2019-05-14T05:04:30.445Z,1030.18
2019-05-14T05:05:30.237Z,1030.14
2019-05-14T05:06:30.259Z,1030.11
2019-05-14T05:07:30.247Z,1030.14
2019-05-14T05:08:30.962Z,1030.11
2019-05-14T05:10:30.338Z,1030.13
2019-05-14T05:11:30.305Z,1030.12
2019-05-14T05:12:30.326Z,1030.10
2019-05-14T05:13:30.344Z,1030.07
2019-05-14T05:14:30.338Z,1030.12
2019-05-14T05:15:30.353Z,1030.10
2019-05-14T05:16:30.369Z,1030.17
2019-05-14T05:17:42.723Z,1030.12
2019-05-14T05:18:31.091Z,1030.18
2019-05-14T05:19:30.412Z,1030.20
2019-05-14T05:20:30.509Z,1030.21
2019-05-14T05:21:30.433Z,1030.21
2019-05-14T05:22:30.447Z,1030.21
2019-05-14T05:23:30.479Z,1030.17
2019-05-14T05:24:30.515Z,1030.18
2019-05-14T05:25:30.633Z,1030.17
2019-05-14T05:26:30.560Z,1030.17
2019-05-14T05:27:30.512Z,1030.18
2019-05-14T05:28:31.355Z,1030.13
2019-05-14T05:29:31.328Z,1030.12
2019-05-14T05:30:31.575Z,1030.07
2019-05-14T05:31:30.672Z,1030.14
2019-05-14T05:32:30.636Z,1030.10
2019-05-14T05:33:30.619Z,1030.06
2019-05-14T05:34:31.055Z,1030.07
2019-05-14T05:36:30.641Z,1030.10
2019-05-14T05:37:30.813Z,1030.08
2019-05-14T05:38:30.682Z,1030.14
2019-05-14T05:39:30.684Z,1030.16
2019-05-14T05:40:30.701Z,1030.16
2019-05-14T05:41:30.711Z,1030.13
2019-05-14T05:42:30.760Z,1030.15
2019-05-14T05:43:30.845Z,1030.13
2019-05-14T05:44:30.752Z,1030.20
2019-05-14T05:45:30.817Z,1030.17
2019-05-14T05:46:30.781Z,1030.19
2019-05-14T05:47:30.792Z,1030.16
2019-05-14T05:48:30.909Z,1030.19
2019-05-14T05:49:30.931Z,1030.15
2019-05-14T05:50:30.835Z,1030.14
2019-05-14T05:51:30.918Z,1030.13
2019-05-14T05:52:30.860Z,1030.10
2019-05-14T05:53:30.874Z,1030.12
2019-05-14T05:54:30.893Z,1030.11
2019-05-14T05:55:30.906Z,1030.07
2019-05-14T05:56:30.924Z,1030.07
2019-05-14T05:57:30.950Z,1030.02
2019-05-14T05:58:30.941Z,1030.01
2019-05-14T05:59:30.958Z,1030.01
2019-05-14T06:00:30.993Z,1029.98
2019-05-14T06:01:42.182Z,1029.93
2019-05-14T06:02:30.986Z,1029.95
2019-05-14T06:03:31.012Z,1029.99
2019-05-14T06:04:31.023Z,1030.06
2019-05-14T06:05:31.135Z,1029.97
2019-05-14T06:07:31.076Z,1029.98
2019-05-14T06:08:31.566Z,1029.98
2019-05-14T06:09:31.080Z,1029.97
2019-05-14T06:10:31.108Z,1029.96
2019-05-14T06:11:31.154Z,1029.97
2019-05-14T06:12:31.146Z,1029.97
2019-05-14T06:13:31.136Z,1029.94
2019-05-14T06:14:31.152Z,1029.92
2019-05-14T06:15:44.652Z,1029.93
2019-05-14T06:16:31.685Z,1029.90
2019-05-14T06:17:31.191Z,1029.93
2019-05-14T06:18:34.292Z,1029.91
2019-05-14T06:19:31.267Z,1029.92
2019-05-14T06:20:31.231Z,1029.91
2019-05-14T06:21:31.259Z,1029.91
2019-05-14T06:22:31.260Z,1029.89
2019-05-14T06:23:31.279Z,1029.88
2019-05-14T06:24:31.583Z,1029.84
2019-05-14T06:25:31.533Z,1029.89
2019-05-14T06:26:31.326Z,1029.85
2019-05-14T06:27:31.346Z,1029.87
2019-05-14T06:28:33.549Z,1029.85
2019-05-14T06:29:31.366Z,1029.85
2019-05-14T06:30:31.384Z,1029.77
2019-05-14T06:31:31.399Z,1029.83
2019-05-14T06:32:31.412Z,1029.76
2019-05-14T06:33:31.410Z,1029.77
2019-05-14T06:34:31.430Z,1029.75
2019-05-14T06:35:31.703Z,1029.77
2019-05-14T06:36:31.446Z,1029.71
2019-05-14T06:37:31.466Z,1029.72
2019-05-14T06:38:31.481Z,1029.73
2019-05-14T06:39:31.488Z,1029.77
2019-05-14T06:40:31.503Z,1029.73
2019-05-14T06:41:31.520Z,1029.73
2019-05-14T06:42:31.531Z,1029.73
2019-05-14T06:43:31.545Z,1029.71
2019-05-14T06:44:31.573Z,1029.74
2019-05-14T06:45:31.583Z,1029.70
2019-05-14T06:46:31.895Z,1029.70
2019-05-14T06:47:31.607Z,1029.75
2019-05-14T06:48:34.682Z,1029.70
2019-05-14T06:49:31.631Z,1029.77
2019-05-14T06:50:31.649Z,1029.74
2019-05-14T06:51:31.653Z,1029.78
2019-05-14T06:52:31.678Z,1029.80
2019-05-14T06:53:31.700Z,1029.80
2019-05-14T06:54:31.717Z,1029.77
2019-05-14T06:55:31.710Z,1029.76
2019-05-14T06:56:31.732Z,1029.83
2019-05-14T06:57:31.743Z,1029.77
2019-05-14T06:58:31.754Z,1029.79
2019-05-14T06:59:31.763Z,1029.76
2019-05-14T07:00:31.779Z,1029.79
2019-05-14T07:01:31.810Z,1029.76
2019-05-14T07:02:31.839Z,1029.76
2019-05-14T07:03:31.827Z,1029.78
2019-05-14T07:04:31.836Z,1029.79
2019-05-14T07:05:31.850Z,1029.76
2019-05-14T07:06:31.931Z,1029.76
2019-05-14T07:07:31.878Z,1029.79
2019-05-14T07:08:31.886Z,1029.80
2019-05-14T07:09:31.923Z,1029.81
2019-05-14T07:10:31.926Z,1029.80
2019-05-14T07:11:31.935Z,1029.82
2019-05-14T07:12:31.945Z,1029.84
2019-05-14T07:13:31.964Z,1029.82
2019-05-14T07:14:31.976Z,1029.81
2019-05-14T07:15:32.006Z,1029.78
2019-05-14T07:16:32.001Z,1029.78
2019-05-14T07:17:32.051Z,1029.78
2019-05-14T07:18:45.728Z,1029.79
2019-05-14T07:19:32.048Z,1029.81
2019-05-14T07:20:32.060Z,1029.78
2019-05-14T07:21:32.074Z,1029.79
2019-05-14T07:22:32.088Z,1029.80
2019-05-14T07:23:32.113Z,1029.82
2019-05-14T07:24:32.122Z,1029.78
2019-05-14T07:25:32.130Z,1029.78
2019-05-14T07:26:32.154Z,1029.82
2019-05-14T07:27:32.162Z,1029.83
2019-05-14T07:28:32.170Z,1029.82
2019-05-14T07:29:32.188Z,1029.84
2019-05-14T07:30:32.205Z,1029.83
2019-05-14T07:31:32.222Z,1029.82
2019-05-14T07:32:32.242Z,1029.81
2019-05-14T07:33:32.959Z,1029.82
2019-05-14T07:35:32.380Z,1029.84
2019-05-14T07:36:32.827Z,1029.86
2019-05-14T07:37:32.592Z,1029.85
2019-05-14T07:38:32.914Z,1029.84
2019-05-14T07:39:32.335Z,1029.84
2019-05-14T07:40:32.521Z,1029.88
2019-05-14T07:41:33.010Z,1029.86
2019-05-14T07:43:32.510Z,1029.87
2019-05-14T07:44:32.399Z,1029.90
2019-05-14T07:45:33.404Z,1029.87
2019-05-14T07:46:32.506Z,1029.87
2019-05-14T07:47:32.455Z,1029.87
2019-05-14T07:48:32.462Z,1029.87
2019-05-14T07:49:32.475Z,1029.86
2019-05-14T07:51:33.622Z,1029.92
2019-05-14T07:52:32.519Z,1029.87
2019-05-14T07:53:38.758Z,1029.84
2019-05-14T07:54:32.554Z,1029.78
2019-05-14T07:55:32.611Z,1029.78
2019-05-14T07:56:32.573Z,1029.75
2019-05-14T07:57:32.601Z,1029.81
2019-05-14T07:58:32.615Z,1029.85
2019-05-14T07:59:32.618Z,1029.84
2019-05-14T08:00:32.638Z,1029.83
2019-05-14T08:01:32.660Z,1029.81
2019-05-14T08:02:32.686Z,1029.87
2019-05-14T08:03:32.677Z,1029.87
2019-05-14T08:04:32.711Z,1029.79
2019-05-14T08:05:32.713Z,1029.82
2019-05-14T08:06:32.721Z,1029.82
2019-05-14T08:07:32.743Z,1029.83
2019-05-14T08:08:32.746Z,1029.88
2019-05-14T08:09:32.772Z,1029.81
2019-05-14T08:10:32.780Z,1029.82
2019-05-14T08:11:32.818Z,1029.83
2019-05-14T08:12:32.805Z,1029.81
2019-05-14T08:13:32.825Z,1029.82
2019-05-14T08:14:41.816Z,1029.84
2019-05-14T08:15:32.856Z,1029.81
2019-05-14T08:16:32.898Z,1029.81
2019-05-14T08:17:32.887Z,1029.85
2019-05-14T08:18:32.897Z,1029.84
2019-05-14T08:19:34.478Z,1029.83
2019-05-14T08:20:32.930Z,1029.88
2019-05-14T08:21:32.955Z,1029.87
2019-05-14T08:22:32.950Z,1029.88
2019-05-14T08:23:32.973Z,1029.91
2019-05-14T08:24:33.118Z,1029.86
2019-05-14T08:25:33.131Z,1029.82
2019-05-14T08:26:33.012Z,1029.74
2019-05-14T08:27:33.030Z,1029.79
2019-05-14T08:28:33.045Z,1029.79
2019-05-14T08:29:33.059Z,1029.75
2019-05-14T08:30:33.072Z,1029.77
2019-05-14T08:31:33.079Z,1029.73
2019-05-14T08:32:33.094Z,1029.71
2019-05-14T08:33:33.113Z,1029.67
2019-05-14T08:34:33.125Z,1029.65
2019-05-14T08:35:35.126Z,1029.63
2019-05-14T08:36:33.153Z,1029.61
2019-05-14T08:37:33.168Z,1029.58
2019-05-14T08:38:33.202Z,1029.64
2019-05-14T08:39:33.197Z,1029.53
2019-05-14T08:40:33.214Z,1029.50
2019-05-14T08:41:33.236Z,1029.49
2019-05-14T08:42:34.380Z,1029.45
2019-05-14T08:43:33.261Z,1029.48
2019-05-14T08:44:33.296Z,1029.41
2019-05-14T08:45:33.286Z,1029.47
2019-05-14T08:46:33.312Z,1029.42
2019-05-14T08:48:21.889Z,1029.37
2019-05-14T08:49:36.205Z,1029.39
2019-05-14T08:50:21.927Z,1029.41
2019-05-14T08:51:21.935Z,1029.36
2019-05-14T08:52:21.947Z,1029.36
2019-05-14T08:53:21.962Z,1029.29
2019-05-14T08:54:21.974Z,1029.30
2019-05-14T08:55:21.984Z,1029.30
2019-05-14T08:56:22.010Z,1029.32
2019-05-14T08:57:22.111Z,1029.37
2019-05-14T08:58:22.076Z,1029.33
2019-05-14T08:59:22.321Z,1029.35
2019-05-14T09:00:22.074Z,1029.33
2019-05-14T09:01:22.104Z,1029.36
2019-05-14T09:02:22.173Z,1029.40
2019-05-14T09:03:22.218Z,1029.41
2019-05-14T09:04:22.962Z,1029.42
2019-05-14T09:05:22.137Z,1029.37
2019-05-14T09:06:22.159Z,1029.36
2019-05-14T09:07:22.167Z,1029.34
2019-05-14T09:08:22.211Z,1029.38
2019-05-14T09:09:22.402Z,1029.31
2019-05-14T09:10:22.212Z,1029.32
2019-05-14T09:11:25.507Z,1029.29
2019-05-14T09:12:22.265Z,1029.28
2019-05-14T09:13:22.279Z,1029.23
2019-05-14T09:14:22.270Z,1029.23
2019-05-14T09:15:22.289Z,1029.18
2019-05-14T09:16:38.465Z,1029.25
2019-05-14T09:17:22.317Z,1029.25
2019-05-14T09:18:22.357Z,1029.23
2019-05-14T09:19:22.349Z,1029.29
2019-05-14T09:20:22.365Z,1029.29
2019-05-14T09:21:22.382Z,1029.31
2019-05-14T09:22:22.916Z,1029.31
2019-05-14T09:23:23.292Z,1029.24
2019-05-14T09:24:22.425Z,1029.16
2019-05-14T09:25:22.439Z,1029.20
2019-05-14T09:26:22.461Z,1029.12
2019-05-14T09:27:22.467Z,1029.15
2019-05-14T09:28:22.490Z,1029.13
2019-05-14T09:29:26.058Z,1029.17
2019-05-14T09:30:22.514Z,1029.18
2019-05-14T09:31:22.530Z,1029.21
2019-05-14T09:32:22.582Z,1029.17
2019-05-14T09:33:24.297Z,1029.26
2019-05-14T09:34:22.573Z,1029.25
2019-05-14T09:35:22.593Z,1029.20
2019-05-14T09:36:24.221Z,1029.15
2019-05-14T09:37:22.624Z,1029.18
2019-05-14T09:38:22.650Z,1029.20
2019-05-14T09:39:22.675Z,1029.13
2019-05-14T09:40:22.667Z,1029.14
2019-05-14T09:41:22.692Z,1029.17
2019-05-14T09:42:22.699Z,1029.19
2019-05-14T09:43:22.724Z,1029.18
2019-05-14T09:44:22.729Z,1029.13
2019-05-14T09:45:22.739Z,1029.17
2019-05-14T09:46:22.762Z,1029.21
2019-05-14T09:47:22.769Z,1029.15
2019-05-14T09:48:22.787Z,1029.13
2019-05-14T09:49:22.804Z,1029.21
2019-05-14T09:50:23.716Z,1029.17
2019-05-14T09:51:22.841Z,1029.21
2019-05-14T09:52:23.396Z,1029.18
2019-05-14T09:53:22.959Z,1029.18
2019-05-14T09:54:22.884Z,1029.15
2019-05-14T09:55:22.892Z,1029.25
2019-05-14T09:56:22.909Z,1029.16
2019-05-14T09:57:23.136Z,1029.15
2019-05-14T09:58:22.947Z,1029.15
2019-05-14T09:59:22.962Z,1029.10
2019-05-14T10:00:22.968Z,1029.04
2019-05-14T10:01:23.164Z,1028.97
2019-05-14T10:02:23.648Z,1029.02
2019-05-14T10:03:23.018Z,1028.93
2019-05-14T10:04:23.551Z,1028.88
2019-05-14T10:05:23.191Z,1028.95
2019-05-14T10:06:23.084Z,1028.93
2019-05-14T10:07:23.070Z,1028.99
2019-05-14T10:08:23.114Z,1028.92
2019-05-14T10:09:23.112Z,1028.92
2019-05-14T10:10:23.138Z,1028.96
2019-05-14T10:11:23.329Z,1028.98
2019-05-14T10:12:23.165Z,1028.96
2019-05-14T10:13:23.207Z,1028.95
2019-05-14T10:14:23.203Z,1028.95
2019-05-14T10:15:23.203Z,1028.92
2019-05-14T10:16:23.224Z,1028.89
2019-05-14T10:17:23.227Z,1028.85
2019-05-14T10:18:23.244Z,1028.84
2019-05-14T10:19:23.270Z,1028.83
2019-05-14T10:20:36.399Z,1028.78
2019-05-14T10:21:23.285Z,1028.78
2019-05-14T10:22:23.302Z,1028.79
2019-05-14T10:23:23.310Z,1028.76
2019-05-14T10:24:23.331Z,1028.74
2019-05-14T10:25:23.340Z,1028.74
2019-05-14T10:26:23.360Z,1028.79
2019-05-14T10:27:23.385Z,1028.74
2019-05-14T10:28:23.464Z,1028.79
2019-05-14T10:29:23.401Z,1028.78
2019-05-14T10:30:23.432Z,1028.74
2019-05-14T10:31:23.444Z,1028.73
2019-05-14T10:32:23.451Z,1028.69
2019-05-14T10:33:23.468Z,1028.67
2019-05-14T10:34:23.478Z,1028.62
2019-05-14T10:35:39.046Z,1028.65
2019-05-14T10:36:23.516Z,1028.70
2019-05-14T10:37:23.530Z,1028.64
2019-05-14T10:38:23.565Z,1028.65
2019-05-14T10:39:23.553Z,1028.69
2019-05-14T10:40:23.584Z,1028.67
2019-05-14T10:41:23.587Z,1028.67
2019-05-14T10:42:23.602Z,1028.63
2019-05-14T10:43:23.627Z,1028.59
2019-05-14T10:44:23.629Z,1028.55
2019-05-14T10:46:23.818Z,1028.51
2019-05-14T10:47:23.684Z,1028.43
2019-05-14T10:48:23.904Z,1028.43
2019-05-14T10:49:23.955Z,1028.50
2019-05-14T10:50:23.730Z,1028.50
2019-05-14T10:51:23.739Z,1028.58
2019-05-14T10:52:23.764Z,1028.56
2019-05-14T10:53:23.768Z,1028.52
2019-05-14T10:54:25.763Z,1028.57
2019-05-14T10:55:23.798Z,1028.52
2019-05-14T10:56:23.907Z,1028.55
2019-05-14T10:57:23.856Z,1028.55
2019-05-14T10:58:23.849Z,1028.56
2019-05-14T10:59:23.864Z,1028.50
2019-05-14T11:00:23.870Z,1028.50
2019-05-14T11:01:23.884Z,1028.47
2019-05-14T11:02:23.903Z,1028.45
2019-05-14T11:03:23.928Z,1028.47
2019-05-14T11:04:24.681Z,1028.47
2019-05-14T11:05:24.889Z,1028.35
2019-05-14T11:06:23.968Z,1028.46
2019-05-14T11:08:23.992Z,1028.39
2019-05-14T11:09:23.998Z,1028.41
2019-05-14T11:10:24.035Z,1028.45
2019-05-14T11:11:24.030Z,1028.35
2019-05-14T11:12:24.045Z,1028.42
2019-05-14T11:13:24.057Z,1028.41
2019-05-14T11:14:24.075Z,1028.32
2019-05-14T11:15:24.094Z,1028.28
2019-05-14T11:16:24.104Z,1028.36
2019-05-14T11:17:24.128Z,1028.33
2019-05-14T11:18:24.135Z,1028.29
2019-05-14T11:19:24.151Z,1028.24
2019-05-14T11:20:24.178Z,1028.21
2019-05-14T11:21:26.859Z,1028.18
2019-05-14T11:22:24.198Z,1028.21
2019-05-14T11:23:24.210Z,1028.25
2019-05-14T11:24:24.229Z,1028.21
2019-05-14T11:25:24.247Z,1028.23
2019-05-14T11:26:24.929Z,1028.24
2019-05-14T11:27:24.267Z,1028.15
2019-05-14T11:28:24.282Z,1028.14
2019-05-14T11:29:24.310Z,1028.13
2019-05-14T11:30:24.319Z,1028.13
2019-05-14T11:31:24.339Z,1028.12
2019-05-14T11:32:24.352Z,1028.16
2019-05-14T11:33:24.361Z,1028.14
2019-05-14T11:34:24.382Z,1028.07
2019-05-14T11:35:24.393Z,1028.10
2019-05-14T11:36:24.411Z,1028.04
2019-05-14T11:37:24.423Z,1027.90
2019-05-14T11:38:33.632Z,1027.99
2019-05-14T11:39:24.455Z,1027.96
2019-05-14T11:40:24.468Z,1028.05
2019-05-14T11:41:24.493Z,1028.02
2019-05-14T11:42:24.528Z,1027.96
2019-05-14T11:43:24.521Z,1027.95
2019-05-14T11:44:24.531Z,1027.90
2019-05-14T11:45:24.552Z,1027.81
2019-05-14T11:46:39.421Z,1027.77
2019-05-14T11:47:24.580Z,1027.75
2019-05-14T11:48:24.595Z,1027.70
2019-05-14T11:49:24.610Z,1027.69
2019-05-14T11:50:24.634Z,1027.69
2019-05-14T11:51:56.217Z,1027.73
2019-05-14T11:52:24.655Z,1027.73
2019-05-14T11:53:24.675Z,1027.69
2019-05-14T11:54:24.691Z,1027.75
2019-05-14T11:55:24.700Z,1027.74
2019-05-14T11:56:24.714Z,1027.75
2019-05-14T11:57:24.735Z,1027.78
2019-05-14T11:58:24.755Z,1027.76
2019-05-14T11:59:24.765Z,1027.75
2019-05-14T12:00:26.087Z,1027.71
2019-05-14T12:01:24.798Z,1027.73
2019-05-14T12:02:24.825Z,1027.68
2019-05-14T12:03:24.825Z,1027.70
2019-05-14T12:04:24.839Z,1027.69
2019-05-14T12:05:24.859Z,1027.68
2019-05-14T12:06:24.899Z,1027.66
2019-05-14T12:07:24.892Z,1027.66
2019-05-14T12:08:24.902Z,1027.62
2019-05-14T12:09:24.920Z,1027.63
2019-05-14T12:10:24.944Z,1027.71
2019-05-14T12:11:25.155Z,1027.70
2019-05-14T12:12:24.992Z,1027.70
2019-05-14T12:13:27.226Z,1027.71
2019-05-14T12:14:24.999Z,1027.68
2019-05-14T12:15:25.018Z,1027.64
2019-05-14T12:16:25.043Z,1027.62
2019-05-14T12:17:25.048Z,1027.51